Аэропорт: Брянск. Брянск

ICAO: UUBP

METAR:
2021-07-28 14:30:00
UUBP 281430Z 34001MPS 9999 -TSRA BKN032CB 23/22 Q1011 R16/CLRD70 NOSIG RMK QFE740/0987
METAR:
2021-07-28 10:51:00
TAF UUBP 281051Z 2812/2821 17005MPS 9999 SCT030 BKN070 TEMPO 2812/2815 17005G10MPS -SHRA SCT020CB